Time;durP1;ratioP1;P1;durP2;ratioP2;P2;SDS_P1;SDS_P2;PMS_P1;PMS_P2;Temp;Humidity;BMP_temperature;BMP_pressure;BME280_temperature;BME280_humidity;BME280_pressure;Samples;Min_cycle;Max_cycle;Signal;HPM_P1;HPM_P2
2024/01/05 00:01:45;;;;;;;8.15;5.55;;;-21.60;90.30;;;;;;5029995;28;20088;-92
2024/01/05 00:04:11;;;;;;;11.65;4.30;;;-21.60;90.30;;;;;;5021837;28;20029;-91
2024/01/05 00:06:37;;;;;;;7.75;4.20;;;-21.60;90.40;;;;;;5022804;28;20088;-91
2024/01/05 00:09:05;;;;;;;11.52;4.28;;;-21.60;90.50;;;;;;5044886;28;20029;-91
2024/01/05 00:11:31;;;;;;;8.13;4.35;;;-21.60;90.50;;;;;;5023505;28;20495;-91
2024/01/05 00:13:57;;;;;;;12.05;4.38;;;-21.60;90.50;;;;;;5026036;28;20089;-91
2024/01/05 00:16:23;;;;;;;7.60;3.78;;;-21.50;90.50;;;;;;5044560;28;20026;-88
2024/01/05 00:18:50;;;;;;;7.63;4.18;;;-21.50;90.50;;;;;;5029289;28;20030;-88
2024/01/05 00:21:20;;;;;;;;;;;-21.50;90.50;;;;;;5040668;28;20032;-88
2024/01/05 00:23:46;;;;;;;8.82;4.75;;;-21.50;90.50;;;;;;5062560;28;19928;-91
2024/01/05 00:26:12;;;;;;;14.23;5.43;;;-21.40;90.50;;;;;;5033224;28;20128;-88
2024/01/05 00:28:38;;;;;;;12.48;5.47;;;-21.50;90.50;;;;;;5058068;28;20041;-88
2024/01/05 00:31:04;;;;;;;9.07;4.80;;;-21.40;90.50;;;;;;5041014;28;20402;-89
2024/01/05 00:33:29;;;;;;;18.00;4.90;;;-21.40;90.60;;;;;;5039125;28;20081;-92
2024/01/05 00:35:56;;;;;;;4.70;3.88;;;-21.40;90.60;;;;;;5051010;28;20415;-90
2024/01/05 00:38:21;;;;;;;13.73;5.88;;;-21.40;90.60;;;;;;5022665;28;20402;-92
2024/01/05 00:40:47;;;;;;;3.97;3.03;;;-21.40;90.60;;;;;;5020762;28;20026;-90
2024/01/05 00:43:13;;;;;;;11.27;7.40;;;-21.40;90.60;;;;;;5029546;28;20098;-90
2024/01/05 00:45:39;;;;;;;8.77;3.88;;;-21.40;90.60;;;;;;5021431;28;20052;-89
2024/01/05 00:48:05;;;;;;;4.47;4.07;;;-21.50;90.60;;;;;;5046908;28;20086;-89
2024/01/05 00:50:31;;;;;;;2.80;1.92;;;-21.50;90.50;;;;;;5055157;28;20022;-89
2024/01/05 00:52:56;;;;;;;2.90;2.65;;;-21.50;90.50;;;;;;5027819;28;20038;-86
2024/01/05 00:55:24;;;;;;;1.00;1.00;;;-21.50;90.50;;;;;;5044523;28;20081;-90
2024/01/05 00:57:49;;;;;;;6.13;4.22;;;-21.50;90.50;;;;;;5046202;28;20030;-86
2024/01/05 01:00:16;;;;;;;9.20;7.85;;;-21.50;90.50;;;;;;5049990;28;20091;-88
2024/01/05 01:02:42;;;;;;;8.43;6.43;;;-21.60;90.50;;;;;;5049418;28;20013;-90
2024/01/05 01:05:08;;;;;;;6.82;4.82;;;-21.70;90.30;;;;;;5038903;28;20019;-91
2024/01/05 01:07:34;;;;;;;4.93;3.42;;;-21.80;90.20;;;;;;5038565;28;20075;-88
2024/01/05 01:10:00;;;;;;;6.63;3.95;;;-21.90;90.30;;;;;;5042375;28;20014;-88
2024/01/05 01:12:26;;;;;;;8.85;3.53;;;-21.90;90.50;;;;;;5029730;28;20056;-87
2024/01/05 01:14:53;;;;;;;10.73;6.00;;;-21.90;90.70;;;;;;5017974;28;20144;-88
2024/01/05 01:17:19;;;;;;;8.20;4.30;;;-21.80;90.80;;;;;;5036855;28;20078;-89
2024/01/05 01:19:44;;;;;;;12.55;7.65;;;-21.70;90.80;;;;;;5048129;28;20029;-91
2024/01/05 01:22:10;;;;;;;5.78;3.55;;;-21.70;90.90;;;;;;5035992;28;20029;-90
2024/01/05 01:24:36;;;;;;;8.77;4.63;;;-21.60;90.90;;;;;;5019226;28;20054;-89
2024/01/05 01:27:02;;;;;;;10.05;4.80;;;-21.60;90.90;;;;;;5022864;28;20041;-90
2024/01/05 01:29:27;;;;;;;13.30;9.00;;;-21.60;91.00;;;;;;5012454;28;20025;-89
2024/01/05 01:31:53;;;;;;;7.95;4.63;;;-21.60;91.00;;;;;;5036811;28;20029;-88
2024/01/05 01:34:19;;;;;;;10.23;6.80;;;-21.60;91.00;;;;;;5016084;28;20025;-87
2024/01/05 01:36:45;;;;;;;6.68;4.75;;;-21.60;91.00;;;;;;5046290;28;20119;-86
2024/01/05 01:39:11;;;;;;;9.77;5.97;;;-21.70;91.00;;;;;;5023229;28;20061;-86
2024/01/05 01:41:37;;;;;;;11.20;6.00;;;-21.60;91.00;;;;;;5040570;28;20483;-85
2024/01/05 01:44:04;;;;;;;;;;;-21.60;91.30;;;;;;5026287;28;20044;-92
2024/01/05 01:46:33;;;;;;;2.00;1.70;;;-21.70;91.00;;;;;;5038614;28;19897;-92
2024/01/05 01:48:59;;;;;;;14.70;6.68;;;-21.60;91.00;;;;;;5051349;28;20475;-89
2024/01/05 01:51:25;;;;;;;14.45;8.65;;;-21.60;91.10;;;;;;5019168;28;20032;-88
2024/01/05 01:53:52;;;;;;;4.60;3.97;;;-21.60;91.10;;;;;;5028792;28;20123;-88
2024/01/05 01:56:18;;;;;;;2.60;1.73;;;-21.60;91.20;;;;;;5018607;28;20048;-89
2024/01/05 01:58:44;;;;;;;;;;;-21.60;91.20;;;;;;5038200;28;20149;-84
2024/01/05 02:01:11;;;;;;;6.13;3.42;;;-21.60;91.30;;;;;;5029736;28;19905;-86
2024/01/05 02:03:37;;;;;;;5.35;3.80;;;-21.60;91.30;;;;;;5026698;28;20021;-85
2024/01/05 02:06:03;;;;;;;1.42;1.33;;;-21.60;91.20;;;;;;5027138;28;20144;-85
2024/01/05 02:08:29;;;;;;;10.88;3.65;;;-21.60;91.30;;;;;;5044344;28;20037;-86
2024/01/05 02:10:55;;;;;;;7.25;4.80;;;-21.50;91.30;;;;;;5040926;28;20025;-85
2024/01/05 02:13:22;;;;;;;8.50;4.78;;;-21.50;91.40;;;;;;5047256;28;20093;-87
2024/01/05 02:15:47;;;;;;;11.02;5.55;;;-21.50;91.40;;;;;;5027951;28;20033;-86
2024/01/05 02:18:14;;;;;;;3.78;2.35;;;-21.50;91.40;;;;;;5056439;28;20399;-86
2024/01/05 02:20:44;;;;;;;4.70;4.20;;;-21.50;91.40;;;;;;5023155;28;20025;-86
2024/01/05 02:23:25;;;;;;;4.95;3.60;;;-21.40;91.50;;;;;;5026153;28;20026;-88
2024/01/05 02:25:51;;;;;;;6.78;3.88;;;-21.40;91.40;;;;;;5018087;28;20022;-86
2024/01/05 02:28:18;;;;;;;10.25;4.95;;;-21.40;91.40;;;;;;5032072;28;20101;-84
2024/01/05 02:30:44;;;;;;;11.23;6.57;;;-21.50;91.40;;;;;;5048513;28;20031;-85
2024/01/05 02:33:10;;;;;;;11.32;6.45;;;-21.50;91.40;;;;;;5037702;28;20112;-86
2024/01/05 02:35:37;;;;;;;9.93;4.68;;;-21.50;91.50;;;;;;5039881;28;20033;-86
2024/01/05 02:38:03;;;;;;;4.70;3.00;;;-21.40;91.50;;;;;;5050466;28;20021;-86
2024/01/05 02:40:29;;;;;;;9.30;4.05;;;-21.40;91.50;;;;;;5060002;28;20025;-88
2024/01/05 02:42:55;;;;;;;6.20;3.75;;;-21.30;91.80;;;;;;5051269;28;20033;-86
2024/01/05 02:45:21;;;;;;;12.52;5.32;;;-21.30;91.60;;;;;;5023478;28;20092;-84
2024/01/05 02:47:48;;;;;;;;;;;-21.30;91.70;;;;;;5037530;28;20079;-87
2024/01/05 02:50:15;;;;;;;7.50;4.05;;;-21.30;91.70;;;;;;5036961;28;19980;-86
2024/01/05 02:52:41;;;;;;;9.55;3.95;;;-21.30;91.60;;;;;;5044528;28;20022;-85
2024/01/05 02:55:07;;;;;;;8.32;3.63;;;-21.30;91.60;;;;;;5048230;28;20137;-85
2024/01/05 02:57:33;;;;;;;10.10;5.57;;;-21.30;91.60;;;;;;5042499;28;20026;-85
2024/01/05 02:59:58;;;;;;;5.90;4.13;;;-21.30;91.70;;;;;;5056612;28;20034;-83
2024/01/05 03:02:24;;;;;;;14.02;7.10;;;-21.30;91.80;;;;;;5052540;28;20030;-83
2024/01/05 03:04:51;;;;;;;6.45;3.75;;;-21.30;91.80;;;;;;5058523;28;20034;-85
2024/01/05 03:07:18;;;;;;;21.83;7.43;;;-21.20;91.90;;;;;;5043829;28;20034;-82
2024/01/05 03:09:43;;;;;;;10.90;5.13;;;-21.20;91.90;;;;;;5027186;28;20051;-84
2024/01/05 03:12:09;;;;;;;6.65;4.03;;;-21.20;91.90;;;;;;5050923;28;20116;-84
2024/01/05 03:14:35;;;;;;;10.27;7.05;;;-21.20;91.90;;;;;;5036006;28;20111;-83
2024/01/05 03:17:04;;;;;;;6.53;5.07;;;-21.20;91.90;;;;;;5028966;28;20076;-85
2024/01/05 03:19:30;;;;;;;20.65;11.05;;;-21.20;92.00;;;;;;5037044;28;20072;-85
2024/01/05 03:21:55;;;;;;;15.90;9.38;;;-21.20;92.00;;;;;;5055681;28;20029;-85
2024/01/05 03:24:22;;;;;;;12.38;5.80;;;-21.20;91.90;;;;;;5056543;28;20100;-85
2024/01/05 03:26:51;;;;;;;14.23;5.53;;;-21.20;91.80;;;;;;5045260;28;20034;-89
2024/01/05 03:29:17;;;;;;;18.83;8.32;;;-21.20;91.90;;;;;;5032390;28;20089;-87
2024/01/05 03:31:46;;;;;;;5.63;4.20;;;-21.20;92.00;;;;;;5027868;28;20063;-87
2024/01/05 03:34:14;;;;;;;8.77;5.32;;;-21.10;92.10;;;;;;5036881;28;20498;-86
2024/01/05 03:36:39;;;;;;;6.13;4.10;;;-21.10;92.10;;;;;;5036219;28;20128;-88
2024/01/05 03:39:08;;;;;;;4.18;2.75;;;-21.10;92.20;;;;;;5038988;28;20060;-88
2024/01/05 03:41:34;;;;;;;13.30;8.25;;;-21.10;92.10;;;;;;5037836;28;20389;-88
2024/01/05 03:44:01;;;;;;;8.85;5.00;;;-21.20;92.10;;;;;;5038002;28;20022;-86
2024/01/05 03:46:27;;;;;;;;;;;-21.20;92.10;;;;;;5019216;28;20030;-85
2024/01/05 03:48:52;;;;;;;;;;;-21.20;92.00;;;;;;5038323;28;20279;-83
2024/01/05 03:51:18;;;;;;;5.22;3.25;;;-21.30;91.80;;;;;;5037185;28;19908;-83
2024/01/05 03:53:44;;;;;;;6.95;4.95;;;-21.30;91.70;;;;;;5045971;28;20063;-84
2024/01/05 03:56:10;;;;;;;20.48;4.97;;;-21.30;91.80;;;;;;5069291;28;20064;-84
2024/01/05 03:58:36;;;;;;;13.75;6.03;;;-21.20;92.00;;;;;;5032596;28;20033;-84
2024/01/05 04:01:02;;;;;;;8.98;6.20;;;-21.20;92.10;;;;;;5027905;28;20387;-84
2024/01/05 04:03:28;;;;;;;9.40;4.93;;;-21.20;92.10;;;;;;5042710;28;20033;-85
2024/01/05 04:05:54;;;;;;;2.35;2.10;;;-21.20;92.10;;;;;;5027818;28;20204;-83
2024/01/05 04:08:21;;;;;;;11.48;6.88;;;-21.20;92.40;;;;;;5033304;28;20108;-84
2024/01/05 04:10:47;;;;;;;12.63;8.98;;;-21.20;92.10;;;;;;5036097;28;20098;-85
2024/01/05 04:13:13;;;;;;;10.18;6.20;;;-21.20;92.10;;;;;;5048062;28;20029;-84
2024/01/05 04:15:39;;;;;;;12.20;6.70;;;-21.20;92.10;;;;;;5063502;28;20029;-85
2024/01/05 04:18:05;;;;;;;14.95;6.60;;;-21.10;92.10;;;;;;5055800;28;20021;-84
2024/01/05 04:20:31;;;;;;;8.00;4.72;;;-21.10;92.20;;;;;;5045309;28;20036;-86
2024/01/05 04:23:01;;;;;;;14.35;6.10;;;-21.10;92.40;;;;;;5029777;28;20069;-84
2024/01/05 04:25:27;;;;;;;9.93;3.95;;;-21.10;92.20;;;;;;5035350;28;20060;-84
2024/01/05 04:27:52;;;;;;;7.45;3.65;;;-21.10;92.20;;;;;;5018507;28;20065;-85
2024/01/05 04:30:20;;;;;;;3.60;3.30;;;-21.10;92.10;;;;;;5038418;28;20091;-84
2024/01/05 04:32:47;;;;;;;13.90;6.95;;;-21.20;92.10;;;;;;5034791;28;20064;-84
2024/01/05 04:35:12;;;;;;;11.30;5.20;;;-21.20;92.10;;;;;;5019553;28;20096;-83
2024/01/05 04:37:38;;;;;;;12.13;5.15;;;-21.10;92.20;;;;;;5048869;28;20114;-84
2024/01/05 04:40:06;;;;;;;9.45;5.18;;;-21.10;92.30;;;;;;5055165;28;20080;-82
2024/01/05 04:42:32;;;;;;;11.82;4.40;;;-21.10;92.40;;;;;;5054867;28;20509;-83
2024/01/05 04:44:58;;;;;;;4.35;3.65;;;-21.00;92.40;;;;;;5024527;28;20164;-83
2024/01/05 04:47:24;;;;;;;10.93;5.88;;;-21.00;92.40;;;;;;5031771;28;20551;-86
2024/01/05 04:49:49;;;;;;;8.20;3.30;;;-21.00;92.40;;;;;;5041053;28;20074;-86
2024/01/05 04:52:15;;;;;;;4.10;2.70;;;-20.90;92.40;;;;;;5056462;28;20037;-84
2024/01/05 04:54:41;;;;;;;11.13;4.75;;;-20.90;92.30;;;;;;5051935;28;20096;-84
2024/01/05 04:57:07;;;;;;;5.97;4.85;;;-20.90;92.30;;;;;;5054957;28;20044;-84
2024/01/05 04:59:33;;;;;;;8.73;5.20;;;-20.90;92.30;;;;;;5039383;28;20029;-83
2024/01/05 05:01:59;;;;;;;15.85;6.53;;;-20.90;92.30;;;;;;5034110;28;20395;-85
2024/01/05 05:04:25;;;;;;;10.48;4.90;;;-20.90;92.30;;;;;;5023170;28;20026;-85
2024/01/05 05:06:51;;;;;;;10.15;6.55;;;-20.90;92.20;;;;;;5034674;28;20052;-84
2024/01/05 05:09:16;;;;;;;12.18;3.60;;;-20.90;92.20;;;;;;5034291;28;20024;-85
2024/01/05 05:11:43;;;;;;;7.82;5.18;;;-20.90;92.20;;;;;;5028729;28;20049;-84
2024/01/05 05:14:08;;;;;;;12.15;6.63;;;-20.90;92.20;;;;;;5028820;28;20026;-83
2024/01/05 05:16:35;;;;;;;17.58;4.38;;;-20.90;92.20;;;;;;5037790;28;20135;-85
2024/01/05 05:19:01;;;;;;;9.93;5.55;;;-20.90;92.20;;;;;;5040792;28;20028;-84
2024/01/05 05:21:28;;;;;;;8.18;3.38;;;-20.80;92.10;;;;;;5053733;28;20029;-83
2024/01/05 05:23:54;;;;;;;5.32;3.13;;;-20.80;92.00;;;;;;5031884;28;20033;-85
2024/01/05 05:26:19;;;;;;;7.00;4.93;;;-20.90;91.90;;;;;;5034198;28;20029;-85
2024/01/05 05:28:45;;;;;;;15.38;6.75;;;-20.90;92.00;;;;;;5034285;28;20061;-85
2024/01/05 05:31:11;;;;;;;13.68;6.55;;;-20.90;92.00;;;;;;5034932;28;20025;-85
2024/01/05 05:33:37;;;;;;;12.27;5.90;;;-20.80;92.00;;;;;;5044459;28;20048;-86
2024/01/05 05:36:03;;;;;;;8.90;4.95;;;-20.80;92.00;;;;;;5042201;28;20020;-86
2024/01/05 05:38:29;;;;;;;9.02;4.95;;;-20.80;92.00;;;;;;5057838;28;20036;-84
2024/01/05 05:40:55;;;;;;;21.63;7.53;;;-20.80;92.00;;;;;;5025619;28;20128;-83
2024/01/05 05:43:21;;;;;;;11.90;6.90;;;-20.80;92.10;;;;;;5031356;28;20029;-84
2024/01/05 05:45:46;;;;;;;12.25;7.72;;;-20.70;92.10;;;;;;5025573;28;20032;-86
2024/01/05 05:48:12;;;;;;;15.25;8.13;;;-20.70;92.00;;;;;;5037776;28;20074;-85
2024/01/05 05:50:38;;;;;;;8.27;5.18;;;-20.80;91.90;;;;;;5046155;28;20383;-83
2024/01/05 05:53:04;;;;;;;17.67;5.28;;;-20.80;91.80;;;;;;5043953;28;20045;-85
2024/01/05 05:55:30;;;;;;;13.43;6.55;;;-20.80;91.90;;;;;;5041425;28;20052;-84
2024/01/05 05:57:57;;;;;;;14.70;6.53;;;-20.70;91.90;;;;;;5049254;28;20037;-83
2024/01/05 06:00:25;;;;;;;7.88;5.55;;;-20.70;91.80;;;;;;5044442;28;20030;-84
2024/01/05 06:02:50;;;;;;;11.63;7.60;;;-20.70;91.80;;;;;;5030868;28;20029;-84
2024/01/05 06:05:16;;;;;;;14.43;8.77;;;-20.70;91.80;;;;;;5035564;28;20363;-85
2024/01/05 06:07:42;;;;;;;4.40;2.97;;;-20.70;91.80;;;;;;5025241;28;20036;-84
2024/01/05 06:10:08;;;;;;;8.05;6.18;;;-20.80;91.60;;;;;;5028093;28;20033;-85
2024/01/05 06:12:34;;;;;;;19.27;9.02;;;-20.80;91.70;;;;;;5049788;28;20057;-84
2024/01/05 06:15:00;;;;;;;16.02;6.82;;;-20.80;91.80;;;;;;5048746;28;20029;-84
2024/01/05 06:17:26;;;;;;;7.93;4.35;;;-20.70;91.90;;;;;;5037671;28;20085;-84
2024/01/05 06:19:52;;;;;;;14.20;7.70;;;-20.60;92.00;;;;;;5030428;28;20038;-86
2024/01/05 06:22:18;;;;;;;8.93;6.05;;;-20.50;92.00;;;;;;5026270;28;20029;-86
2024/01/05 06:24:46;;;;;;;17.08;10.52;;;-20.50;92.00;;;;;;5044775;28;20079;-86
2024/01/05 06:27:13;;;;;;;11.05;8.00;;;-20.40;92.00;;;;;;5063010;28;20074;-86
2024/01/05 06:29:38;;;;;;;13.70;8.32;;;-20.30;91.90;;;;;;5040042;28;20145;-87
2024/01/05 06:32:05;;;;;;;9.02;5.30;;;-20.30;91.90;;;;;;5023713;28;20045;-86
2024/01/05 06:34:30;;;;;;;13.77;6.82;;;-20.20;91.90;;;;;;5033669;28;20058;-86
2024/01/05 06:36:56;;;;;;;14.18;6.03;;;-20.10;91.90;;;;;;5022800;28;20109;-88
2024/01/05 06:39:23;;;;;;;7.65;4.68;;;-20.00;92.10;;;;;;5008750;28;20023;-88
2024/01/05 06:41:49;;;;;;;8.93;4.57;;;-19.90;92.10;;;;;;5040007;28;20029;-85
2024/01/05 06:44:15;;;;;;;11.65;5.70;;;-19.80;91.90;;;;;;5016938;28;20440;-85
2024/01/05 06:46:40;;;;;;;14.88;7.28;;;-19.80;91.80;;;;;;5017865;28;20036;-87
2024/01/05 06:49:06;;;;;;;14.40;7.25;;;-19.80;91.70;;;;;;5041094;28;20014;-86
2024/01/05 06:51:39;;;;;;;10.47;4.10;;;-19.70;91.70;;;;;;5026944;28;20030;-86
2024/01/05 06:54:05;;;;;;;12.70;3.28;;;-19.60;91.80;;;;;;5028689;28;20794;-87
2024/01/05 06:56:32;;;;;;;9.43;6.22;;;-19.50;91.70;;;;;;5034038;28;20035;-87
2024/01/05 06:59:00;;;;;;;5.57;3.97;;;-19.50;91.60;;;;;;5041044;28;20101;-85
2024/01/05 07:01:26;;;;;;;14.82;6.78;;;-19.50;91.60;;;;;;5033260;28;20022;-84
2024/01/05 07:03:52;;;;;;;9.88;5.97;;;-19.40;91.60;;;;;;5042008;28;20036;-86
2024/01/05 07:06:18;;;;;;;11.85;6.80;;;-19.30;91.50;;;;;;5020685;28;20045;-89
2024/01/05 07:08:44;;;;;;;6.22;4.68;;;-19.30;91.50;;;;;;5032914;28;20458;-87
2024/01/05 07:11:18;;;;;;;14.10;5.17;;;-19.20;91.60;;;;;;5036025;28;20065;-87
2024/01/05 07:13:44;;;;;;;7.78;4.38;;;-19.20;91.60;;;;;;5015251;28;20036;-89
2024/01/05 07:16:18;;;;;;;7.63;4.20;;;-19.20;91.60;;;;;;5036700;28;20026;-88
2024/01/05 07:18:46;;;;;;;4.93;3.90;;;-19.20;91.50;;;;;;5020666;28;20266;-88
2024/01/05 07:21:15;;;;;;;11.10;6.03;;;-19.20;91.40;;;;;;5023569;28;20024;-88
2024/01/05 07:23:42;;;;;;;5.20;3.25;;;-19.30;91.20;;;;;;5002121;28;20051;-87
2024/01/05 07:26:09;;;;;;;15.50;6.55;;;-19.20;91.30;;;;;;5009318;28;20520;-89
2024/01/05 07:28:37;;;;;;;13.85;7.13;;;-19.10;91.30;;;;;;5027552;28;20065;-88
2024/01/05 07:31:04;;;;;;;17.73;8.23;;;-19.00;91.40;;;;;;5033146;28;20026;-88
2024/01/05 07:33:31;;;;;;;13.85;8.40;;;-18.80;91.40;;;;;;5031329;28;20025;-87
2024/01/05 07:35:56;;;;;;;;;;;-18.80;91.30;;;;;;5029441;28;20017;-87
2024/01/05 07:38:22;;;;;;;10.65;8.10;;;-18.80;90.90;;;;;;5037132;28;19948;-88
2024/01/05 07:40:48;;;;;;;13.48;7.18;;;-18.90;90.30;;;;;;5020627;28;20111;-87
2024/01/05 07:43:14;;;;;;;7.63;5.43;;;-19.10;90.10;;;;;;5019258;28;20595;-86
2024/01/05 07:45:40;;;;;;;7.53;3.35;;;-19.00;90.40;;;;;;5032290;28;20029;-88
2024/01/05 07:48:06;;;;;;;14.82;8.45;;;-19.00;90.20;;;;;;5027707;28;20044;-83
2024/01/05 07:50:31;;;;;;;10.00;7.57;;;-19.00;90.20;;;;;;5032698;28;20022;-85
2024/01/05 07:52:57;;;;;;;14.80;6.90;;;-19.00;90.30;;;;;;5017089;28;20032;-82
2024/01/05 07:55:23;;;;;;;14.38;6.10;;;-18.90;90.40;;;;;;5035101;28;20021;-84
2024/01/05 07:57:49;;;;;;;18.60;9.33;;;-18.80;90.50;;;;;;5025757;28;20145;-82
2024/01/05 08:00:15;;;;;;;17.00;10.13;;;-18.80;90.50;;;;;;5028095;28;20030;-82
2024/01/05 08:02:41;;;;;;;8.13;3.63;;;-18.70;90.60;;;;;;5040958;28;20038;-87
2024/01/05 08:05:10;;;;;;;18.40;9.05;;;-18.70;90.40;;;;;;5010467;28;20034;-86
2024/01/05 08:07:36;;;;;;;15.20;7.45;;;-18.80;90.30;;;;;;5024375;28;20038;-86
2024/01/05 08:10:02;;;;;;;7.05;2.92;;;-18.80;90.40;;;;;;5051060;28;20000;-88
2024/01/05 08:12:28;;;;;;;10.13;5.10;;;-18.70;90.50;;;;;;5053461;28;20029;-86
2024/01/05 08:14:53;;;;;;;18.00;9.33;;;-18.70;90.40;;;;;;5067254;28;20289;-87
2024/01/05 08:17:20;;;;;;;21.03;9.27;;;-18.60;90.40;;;;;;5058403;28;20056;-85
2024/01/05 08:19:46;;;;;;;10.95;6.90;;;-18.50;90.10;;;;;;5073001;28;20013;-89
2024/01/05 08:22:12;;;;;;;15.18;8.23;;;-18.60;89.70;;;;;;5034843;28;20029;-87
2024/01/05 08:24:38;;;;;;;16.00;8.80;;;-18.40;90.20;;;;;;5049177;28;20277;-88
2024/01/05 08:27:04;;;;;;;11.07;7.43;;;-18.20;90.50;;;;;;5056756;28;20091;-84
2024/01/05 08:29:30;;;;;;;13.98;7.05;;;-17.90;90.20;;;;;;5022618;28;20048;-88
2024/01/05 08:31:58;;;;;;;9.00;4.73;;;-17.80;90.00;;;;;;5037659;28;20030;-88
2024/01/05 08:34:24;;;;;;;6.72;3.97;;;-17.70;89.90;;;;;;5040473;28;20105;-87
2024/01/05 08:36:50;;;;;;;13.95;6.70;;;-17.80;89.40;;;;;;5023114;28;20032;-88
2024/01/05 08:39:16;;;;;;;12.70;6.30;;;-17.80;89.80;;;;;;5041831;28;20022;-88
2024/01/05 08:41:45;;;;;;;9.15;4.35;;;-17.80;89.90;;;;;;5035081;28;20036;-85
2024/01/05 08:44:10;;;;;;;7.55;4.85;;;-17.70;89.60;;;;;;5031764;28;20119;-86
2024/01/05 08:46:36;;;;;;;4.47;4.07;;;-17.70;89.20;;;;;;5049103;28;20160;-85
2024/01/05 08:49:02;;;;;;;10.03;6.60;;;-17.70;89.60;;;;;;5044556;28;20029;-85
2024/01/05 08:51:28;;;;;;;17.07;9.10;;;-17.30;90.00;;;;;;5027661;28;20017;-84
2024/01/05 08:53:54;;;;;;;18.67;9.90;;;-17.10;89.70;;;;;;5051829;28;20541;-87
2024/01/05 08:56:19;;;;;;;9.73;4.40;;;-16.70;89.80;;;;;;5019679;28;20021;-86
2024/01/05 08:58:45;;;;;;;16.83;8.07;;;-16.50;88.60;;;;;;5035516;28;20026;-86
2024/01/05 09:01:11;;;;;;;14.20;8.20;;;-16.40;88.00;;;;;;5017547;28;20029;-86
2024/01/05 09:03:37;;;;;;;9.47;6.17;;;-16.20;88.50;;;;;;5048881;28;20053;-86
2024/01/05 09:06:03;;;;;;;18.43;9.90;;;-16.30;87.80;;;;;;5060566;28;20145;-87
2024/01/05 09:08:28;;;;;;;20.33;12.10;;;-16.30;87.10;;;;;;5061209;28;20039;-86
2024/01/05 09:10:54;;;;;;;10.63;7.30;;;-16.10;86.80;;;;;;5059543;28;20036;-87
2024/01/05 09:13:20;;;;;;;11.13;5.87;;;-16.40;84.30;;;;;;5020772;28;20045;-87
2024/01/05 09:15:46;;;;;;;9.68;6.07;;;-16.40;84.90;;;;;;5035014;28;20025;-87
2024/01/05 09:18:12;;;;;;;9.63;5.90;;;-16.10;85.90;;;;;;5034759;28;20033;-87
2024/01/05 09:20:37;;;;;;;15.88;6.75;;;-15.60;87.20;;;;;;5048151;28;20036;-85
2024/01/05 09:23:03;;;;;;;11.05;5.95;;;-15.20;86.50;;;;;;5060508;28;20032;-87
2024/01/05 09:25:30;;;;;;;27.23;11.57;;;-15.00;84.60;;;;;;5059709;28;20021;-86
2024/01/05 09:27:59;;;;;;;16.40;7.45;;;-14.70;84.60;;;;;;5040818;28;20048;-85
2024/01/05 09:30:25;;;;;;;16.80;8.68;;;-14.40;83.70;;;;;;5031439;28;20071;-85
2024/01/05 09:32:51;;;;;;;15.07;9.25;;;-14.10;83.00;;;;;;5052346;28;20445;-86
2024/01/05 09:35:17;;;;;;;18.58;8.77;;;-14.10;83.20;;;;;;5046693;28;20099;-86
2024/01/05 09:37:42;;;;;;;16.08;8.40;;;-14.10;82.50;;;;;;5048109;28;20382;-85
2024/01/05 09:40:10;;;;;;;9.82;7.35;;;-14.20;82.20;;;;;;5029091;28;20018;-84
2024/01/05 09:42:41;;;;;;;18.80;6.90;;;-14.40;81.60;;;;;;5049407;28;20025;-86
2024/01/05 09:45:11;;;;;;;18.85;9.60;;;-14.90;80.80;;;;;;5038586;28;20021;-85
2024/01/05 09:47:38;;;;;;;14.48;7.70;;;-15.40;80.70;;;;;;5029948;28;20040;-86
2024/01/05 09:50:04;;;;;;;27.65;7.90;;;-15.60;81.10;;;;;;5014730;28;20070;-85
2024/01/05 09:52:30;;;;;;;22.85;9.30;;;-15.70;81.30;;;;;;5016202;28;20030;-86
2024/01/05 09:54:57;;;;;;;15.97;8.27;;;-15.90;81.30;;;;;;5040954;28;20027;-85
2024/01/05 09:57:23;;;;;;;15.25;8.15;;;-16.00;81.70;;;;;;5042711;28;20025;-86
2024/01/05 09:59:50;;;;;;;15.15;9.15;;;-16.10;81.10;;;;;;5029170;28;20033;-85
2024/01/05 10:02:25;;;;;;;17.73;8.30;;;-16.30;81.50;;;;;;5032176;28;20025;-85
2024/01/05 10:04:53;;;;;;;9.20;5.40;;;-16.30;81.60;;;;;;5034411;28;20029;-87
2024/01/05 10:07:19;;;;;;;16.92;6.45;;;-16.40;81.10;;;;;;5045391;28;20037;-86
2024/01/05 10:09:49;;;;;;;11.40;5.37;;;-16.50;81.40;;;;;;5035493;28;20039;-86
2024/01/05 10:12:17;;;;;;;22.92;8.63;;;-16.50;81.80;;;;;;5034836;28;20037;-86
2024/01/05 10:14:46;;;;;;;11.70;5.65;;;-16.10;83.70;;;;;;5047439;28;20025;-87
2024/01/05 10:17:12;;;;;;;11.50;8.60;;;-15.40;84.30;;;;;;5055695;28;20118;-86
2024/01/05 10:19:42;;;;;;;17.85;8.63;;;-14.90;83.30;;;;;;5050038;28;20025;-86
2024/01/05 10:22:12;;;;;;;18.77;7.32;;;-14.20;84.20;;;;;;5048933;28;20505;-86
2024/01/05 10:24:39;;;;;;;15.65;7.07;;;-13.40;84.70;;;;;;5053058;28;20024;-83
2024/01/05 10:27:09;;;;;;;;;;;-12.60;83.30;;;;;;5021792;28;20096;-86
2024/01/05 10:29:42;;;;;;;10.52;6.93;;;-12.10;81.10;;;;;;5029866;28;19909;-89
2024/01/05 10:32:15;;;;;;;12.85;7.85;;;-12.40;75.80;;;;;;5025988;28;20049;-85
2024/01/05 10:34:46;;;;;;;20.25;9.05;;;-12.70;75.60;;;;;;5031243;28;20029;-85
2024/01/05 10:37:14;;;;;;;22.17;7.78;;;-13.50;73.10;;;;;;5018361;28;20025;-84
2024/01/05 10:39:45;;;;;;;10.35;7.43;;;-14.60;71.90;;;;;;5024404;28;20506;-83
2024/01/05 10:42:27;;;;;;;8.90;5.70;;;-15.30;73.50;;;;;;5048755;28;20025;-85
2024/01/05 10:44:57;;;;;;;16.08;9.52;;;-15.90;75.00;;;;;;5056403;28;20021;-82
2024/01/05 10:47:26;;;;;;;13.10;7.47;;;-16.20;76.90;;;;;;5040311;28;20033;-84
2024/01/05 10:49:55;;;;;;;12.27;7.30;;;-16.30;77.30;;;;;;5073111;28;20030;-86
2024/01/05 10:52:32;;;;;;;5.38;2.75;;;-16.60;78.00;;;;;;5077898;28;20072;-85
2024/01/05 10:55:02;;;;;;;17.05;8.48;;;-16.80;78.50;;;;;;5062233;28;20035;-84
2024/01/05 10:57:30;;;;;;;12.10;7.28;;;-16.80;80.00;;;;;;5030768;28;20064;-84
2024/01/05 10:59:57;;;;;;;16.80;7.13;;;-16.80;79.70;;;;;;5033085;28;20024;-85
2024/01/05 11:02:35;;;;;;;23.10;11.90;;;-16.70;80.10;;;;;;5038053;28;20026;-86
2024/01/05 11:05:08;;;;;;;13.20;7.97;;;-16.60;80.70;;;;;;5020818;28;20479;-84
2024/01/05 11:07:35;;;;;;;7.18;3.95;;;-16.80;80.90;;;;;;5046725;28;20067;-85
2024/01/05 11:10:22;;;;;;;16.50;9.48;;;-16.70;81.20;;;;;;5043199;28;20025;-86
2024/01/05 11:13:07;;;;;;;10.93;6.63;;;-16.80;81.60;;;;;;5038468;28;20050;-86
2024/01/05 11:15:46;;;;;;;10.35;6.40;;;-16.90;82.20;;;;;;5022229;28;20033;-86
2024/01/05 11:18:16;;;;;;;8.27;5.50;;;-17.00;82.50;;;;;;5019660;28;20498;-85
2024/01/05 11:20:44;;;;;;;8.57;4.63;;;-17.10;82.60;;;;;;5019704;28;20105;-85
2024/01/05 11:23:11;;;;;;;19.40;6.90;;;-17.10;82.90;;;;;;4993575;28;20026;-86
2024/01/05 11:25:38;;;;;;;9.15;5.97;;;-17.00;83.30;;;;;;5018731;28;20109;-86
2024/01/05 11:28:06;;;;;;;11.65;5.70;;;-16.80;83.60;;;;;;5011225;28;20116;-87
2024/01/05 11:30:43;;;;;;;12.45;3.90;;;-16.80;83.50;;;;;;5017651;28;20022;-85
2024/01/05 11:33:49;;;;;;;12.57;5.72;;;-16.80;83.50;;;;;;5008845;28;20026;-87
2024/01/05 11:36:49;;;;;;;15.27;5.82;;;-16.70;83.90;;;;;;5028300;28;20014;-89
2024/01/05 11:39:53;;;;;;;19.90;8.43;;;-16.70;83.90;;;;;;5004027;28;20088;-89
2024/01/05 11:42:25;;;;;;;14.23;6.90;;;-16.80;83.90;;;;;;5020527;28;20140;-88
2024/01/05 11:44:51;;;;;;;19.52;9.65;;;-16.90;84.10;;;;;;4990568;28;20026;-87
2024/01/05 11:47:44;;;;;;;12.07;5.72;;;-16.90;84.70;;;;;;5003627;28;20207;-89
2024/01/05 11:50:33;;;;;;;12.25;6.15;;;-16.80;85.20;;;;;;4996187;28;20038;-86
2024/01/05 11:53:19;;;;;;;11.25;4.97;;;-16.70;85.20;;;;;;5016856;28;20125;-86
2024/01/05 11:55:53;;;;;;;11.27;7.22;;;-16.70;85.40;;;;;;5016163;28;20036;-87
2024/01/05 11:58:27;;;;;;;14.18;7.60;;;-16.70;85.60;;;;;;5002252;28;20030;-87
2024/01/05 12:00:56;;;;;;;5.70;4.03;;;-16.80;85.90;;;;;;5003811;28;20053;-85
2024/01/05 12:03:24;;;;;;;14.23;6.72;;;-16.80;86.30;;;;;;5008297;28;20033;-88
2024/01/05 12:05:54;;;;;;;6.45;3.17;;;-16.80;86.50;;;;;;4993793;28;20058;-87
2024/01/05 12:08:24;;;;;;;9.98;6.60;;;-16.90;86.60;;;;;;5018338;28;20160;-88
2024/01/05 12:10:55;;;;;;;14.05;7.10;;;-16.90;86.90;;;;;;5002847;28;20049;-86
2024/01/05 12:13:26;;;;;;;16.73;6.03;;;-16.90;87.20;;;;;;5040027;28;20049;-87
2024/01/05 12:15:54;;;;;;;14.95;6.45;;;-16.90;87.40;;;;;;5038092;28;20466;-88
2024/01/05 12:18:25;;;;;;;10.63;5.65;;;-16.80;87.70;;;;;;5039164;28;20024;-89
2024/01/05 12:20:55;;;;;;;13.98;7.40;;;-16.80;87.70;;;;;;5001116;28;20029;-88
2024/01/05 12:23:21;;;;;;;13.20;7.43;;;-16.70;87.70;;;;;;5003611;28;20024;-86
2024/01/05 12:26:04;;;;;;;14.88;8.75;;;-16.70;87.70;;;;;;5024404;28;20047;-86
2024/01/05 12:28:40;;;;;;;21.45;8.90;;;-16.70;87.80;;;;;;5039793;28;20041;-81
2024/01/05 12:31:10;;;;;;;18.08;8.55;;;-16.70;87.70;;;;;;5031398;28;20021;-83
2024/01/05 12:33:40;;;;;;;10.93;5.78;;;-16.70;87.70;;;;;;5037733;28;20037;-88
2024/01/05 12:36:12;;;;;;;16.67;7.20;;;-16.70;87.50;;;;;;5025994;28;20032;-88